Terminal Aerodrome Forecast
Issued by NWS

Home | Current Version | Previous Version | Graphics & Text | Print | Product List | Glossary On
Versions: 1 2 3 4 5 6 7 8 9 10 11 12 13 14 15 16 17 18 19 20 21 22 23 24 25 26 27 28 29
000
FTUS45 KGGW 170531
TAFOLF
TAF
KOLF 170531Z 1706/1806 27006KT P6SM FEW140
     FM170900 VRB04KT P6SM FEW040
      TEMPO 1711/1712 4SM BR
     FM171200 24005KT P6SM SCT025
      TEMPO 1712/1715 2SM BR
     FM171500 VRB04KT 5SM BR SCT025
     FM171600 VRB04KT P6SM SCT025=

USA.gov is the U.S. government's official web portal to all federal, state and local government web resources and services.